createdAt,value
2018-07-20T00:02:06.334Z,82.73
2018-07-20T00:04:35.360Z,82.89
2018-07-20T00:07:04.280Z,82.81
2018-07-20T00:09:33.187Z,82.48
2018-07-20T00:12:02.115Z,82.49
2018-07-20T00:14:31.044Z,82.34
2018-07-20T00:16:59.970Z,83.47
2018-07-20T00:19:28.904Z,83.62
2018-07-20T00:21:57.832Z,83.18
2018-07-20T00:24:26.773Z,83.24
2018-07-20T00:26:55.687Z,83.58
2018-07-20T00:29:24.612Z,83.57
2018-07-20T00:31:53.559Z,84.34
2018-07-20T00:34:22.485Z,83.94
2018-07-20T00:36:51.416Z,84.41
2018-07-20T00:39:20.371Z,84.59
2018-07-20T00:41:49.292Z,84.98
2018-07-20T00:44:18.263Z,85.00
2018-07-20T00:46:47.216Z,85.07
2018-07-20T00:49:16.161Z,84.99
2018-07-20T00:51:45.117Z,85.14
2018-07-20T00:54:14.079Z,84.88
2018-07-20T00:56:43.011Z,85.61
2018-07-20T00:59:12.001Z,85.40
2018-07-20T01:01:40.928Z,85.71
2018-07-20T01:04:09.863Z,86.30
2018-07-20T01:06:38.787Z,86.41
2018-07-20T01:09:08.991Z,86.23
2018-07-20T01:11:37.996Z,86.09
2018-07-20T01:14:07.169Z,85.96
2018-07-20T01:16:36.487Z,86.94
2018-07-20T01:19:05.457Z,86.94
2018-07-20T01:21:34.508Z,86.45
2018-07-20T01:24:03.486Z,86.62
2018-07-20T01:26:32.474Z,86.90
2018-07-20T01:29:01.403Z,87.57
2018-07-20T01:31:30.348Z,87.49
2018-07-20T01:33:59.267Z,86.71
2018-07-20T01:36:28.203Z,87.38
2018-07-20T01:38:57.154Z,87.05
2018-07-20T01:41:26.123Z,86.55
2018-07-20T01:43:55.029Z,87.33
2018-07-20T01:46:23.975Z,87.28
2018-07-20T01:48:52.920Z,87.84
2018-07-20T01:51:21.833Z,88.42
2018-07-20T01:53:50.796Z,87.84
2018-07-20T01:56:19.743Z,87.53
2018-07-20T01:58:48.744Z,88.25
2018-07-20T02:01:17.800Z,88.44
2018-07-20T02:03:46.748Z,88.80
2018-07-20T02:06:15.691Z,87.92
2018-07-20T02:08:44.632Z,87.87
2018-07-20T02:11:13.600Z,88.02
2018-07-20T02:13:42.522Z,88.65
2018-07-20T02:16:11.498Z,88.15
2018-07-20T02:18:40.413Z,88.57
2018-07-20T02:21:09.494Z,89.27
2018-07-20T02:23:38.456Z,89.37
2018-07-20T02:26:07.402Z,88.68
2018-07-20T02:28:36.299Z,89.52
2018-07-20T02:31:05.269Z,89.80
2018-07-20T02:33:34.220Z,89.72
2018-07-20T02:36:03.820Z,89.22
2018-07-20T02:38:32.771Z,89.87
2018-07-20T02:41:01.823Z,90.30
2018-07-20T02:43:30.767Z,90.14
2018-07-20T02:45:59.886Z,90.59
2018-07-20T02:48:28.835Z,90.83
2018-07-20T02:50:57.853Z,90.22
2018-07-20T02:53:26.793Z,90.21
2018-07-20T02:55:55.728Z,91.14
2018-07-20T02:58:24.663Z,90.82
2018-07-20T03:00:53.657Z,91.13
2018-07-20T03:03:22.599Z,90.99
2018-07-20T03:05:51.551Z,91.48
2018-07-20T03:08:20.469Z,91.14
2018-07-20T03:10:49.391Z,90.41
2018-07-20T03:13:18.409Z,90.39
2018-07-20T03:15:47.350Z,91.03
2018-07-20T03:18:16.278Z,91.54
2018-07-20T03:20:45.206Z,90.92
2018-07-20T03:23:14.144Z,91.58
2018-07-20T03:25:43.049Z,91.62
2018-07-20T03:28:11.961Z,90.91
2018-07-20T03:30:40.881Z,91.60
2018-07-20T03:33:09.873Z,91.25
2018-07-20T03:35:38.808Z,92.20
2018-07-20T03:38:07.767Z,92.15
2018-07-20T03:40:36.764Z,92.14
2018-07-20T03:43:05.723Z,91.46
2018-07-20T03:45:34.657Z,91.64
2018-07-20T03:48:03.661Z,91.34
2018-07-20T03:50:32.616Z,91.45
2018-07-20T03:53:01.557Z,91.00
2018-07-20T03:55:31.492Z,91.08
2018-07-20T03:58:00.503Z,91.01
2018-07-20T04:00:29.437Z,91.22
2018-07-20T04:02:58.476Z,91.49
2018-07-20T04:05:27.415Z,90.70
2018-07-20T04:07:56.468Z,91.00
2018-07-20T04:10:25.420Z,90.78
2018-07-20T04:12:54.353Z,90.26
2018-07-20T04:15:23.282Z,90.32
2018-07-20T04:17:52.205Z,90.46
2018-07-20T04:20:21.134Z,89.88
2018-07-20T04:22:50.023Z,89.77
2018-07-20T04:25:18.965Z,89.74
2018-07-20T04:27:47.891Z,89.27
2018-07-20T04:30:16.810Z,89.76
2018-07-20T04:32:45.814Z,89.66
2018-07-20T04:35:14.712Z,89.67
2018-07-20T04:37:43.849Z,89.44
2018-07-20T04:40:12.781Z,89.34
2018-07-20T04:42:41.698Z,87.88
2018-07-20T04:45:10.772Z,88.42
2018-07-20T04:47:39.689Z,88.37
2018-07-20T04:50:08.649Z,88.57
2018-07-20T04:52:37.572Z,87.76
2018-07-20T04:55:06.509Z,87.69
2018-07-20T04:57:35.463Z,87.58
2018-07-20T05:00:04.776Z,86.80
2018-07-20T05:02:33.721Z,86.67
2018-07-20T05:05:02.720Z,86.46
2018-07-20T05:07:31.652Z,86.44
2018-07-20T05:10:00.623Z,85.86
2018-07-20T05:12:29.609Z,86.19
2018-07-20T05:14:58.515Z,86.29
2018-07-20T05:17:27.457Z,85.31
2018-07-20T05:19:56.390Z,84.83
2018-07-20T05:22:25.315Z,85.14
2018-07-20T05:24:54.257Z,84.35
2018-07-20T05:27:23.319Z,83.73
2018-07-20T05:29:52.265Z,83.34
2018-07-20T05:32:21.320Z,82.96
2018-07-20T05:34:50.250Z,82.51
2018-07-20T05:37:19.209Z,82.34
2018-07-20T05:39:48.143Z,81.85
2018-07-20T05:42:17.123Z,81.06
2018-07-20T05:44:46.043Z,80.11
2018-07-20T05:47:14.967Z,79.65
2018-07-20T05:49:44.000Z,78.19
2018-07-20T05:52:12.968Z,78.38
2018-07-20T05:54:41.905Z,78.40
2018-07-20T05:57:10.953Z,76.30
2018-07-20T05:59:39.887Z,75.93
2018-07-20T06:02:08.817Z,75.49
2018-07-20T06:04:37.789Z,75.01
2018-07-20T06:07:06.775Z,73.30
2018-07-20T06:09:35.742Z,69.11
2018-07-20T06:12:04.689Z,63.65
2018-07-20T06:14:33.623Z,58.31
2018-07-20T06:17:02.680Z,55.41
2018-07-20T06:19:31.597Z,53.66
2018-07-20T06:22:00.523Z,51.90
2018-07-20T06:24:29.495Z,50.44
2018-07-20T06:26:58.440Z,48.25
2018-07-20T06:29:27.374Z,47.32
2018-07-20T06:31:56.375Z,48.75
2018-07-20T06:34:25.360Z,47.82
2018-07-20T06:36:54.306Z,48.12
2018-07-20T06:39:23.272Z,47.18
2018-07-20T06:41:52.211Z,47.29
2018-07-20T06:44:21.128Z,44.47
2018-07-20T06:46:50.212Z,44.34
2018-07-20T06:49:19.128Z,42.55
2018-07-20T06:51:48.299Z,43.08
2018-07-20T06:54:17.238Z,42.38
2018-07-20T06:56:46.157Z,41.95
2018-07-20T06:59:15.092Z,42.78
2018-07-20T07:01:44.054Z,42.71
2018-07-20T07:04:12.976Z,40.21
2018-07-20T07:06:41.925Z,40.06
2018-07-20T07:09:10.993Z,40.06
2018-07-20T07:11:40.313Z,39.36
2018-07-20T07:14:09.598Z,40.56
2018-07-20T07:16:38.689Z,41.00
2018-07-20T07:19:07.377Z,39.07
2018-07-20T07:21:36.313Z,40.00
2018-07-20T07:24:05.260Z,39.12
2018-07-20T07:26:34.275Z,38.93
2018-07-20T07:29:03.226Z,40.47
2018-07-20T07:31:32.172Z,42.29
2018-07-20T07:34:01.147Z,39.48
2018-07-20T07:36:30.076Z,38.56
2018-07-20T07:38:59.045Z,35.73
2018-07-20T07:41:28.232Z,35.26
2018-07-20T07:43:57.390Z,33.01
2018-07-20T07:46:26.327Z,33.48
2018-07-20T07:48:55.271Z,34.51
2018-07-20T07:51:24.229Z,35.35
2018-07-20T07:53:53.160Z,35.41
2018-07-20T07:56:22.092Z,34.10
2018-07-20T07:58:50.990Z,35.09
2018-07-20T08:01:19.923Z,35.88
2018-07-20T08:03:48.881Z,35.30
2018-07-20T08:06:17.852Z,34.20
2018-07-20T08:08:46.820Z,34.00
2018-07-20T08:11:15.723Z,32.89
2018-07-20T08:13:44.692Z,33.67
2018-07-20T08:16:13.680Z,32.97
2018-07-20T08:18:42.663Z,33.23
2018-07-20T08:21:11.708Z,33.24
2018-07-20T08:23:40.761Z,35.39
2018-07-20T08:26:09.727Z,34.65
2018-07-20T08:28:39.340Z,33.63
2018-07-20T08:31:08.976Z,33.66
2018-07-20T08:33:37.940Z,34.48
2018-07-20T08:36:06.886Z,32.60
2018-07-20T08:38:35.827Z,31.78
2018-07-20T08:41:04.777Z,31.23
2018-07-20T08:43:33.732Z,32.45
2018-07-20T08:46:02.664Z,34.35
2018-07-20T08:48:31.575Z,32.63
2018-07-20T08:51:00.684Z,32.98
2018-07-20T08:53:29.630Z,29.16
2018-07-20T08:55:58.594Z,30.59
2018-07-20T08:58:27.538Z,30.21
2018-07-20T09:00:56.579Z,30.78
2018-07-20T09:03:25.717Z,29.60
2018-07-20T09:05:54.711Z,30.41
2018-07-20T09:08:23.665Z,29.15
2018-07-20T09:10:52.707Z,29.46
2018-07-20T09:13:21.704Z,28.70
2018-07-20T09:15:50.685Z,29.89
2018-07-20T09:18:19.607Z,31.96
2018-07-20T09:20:48.610Z,29.38
2018-07-20T09:23:17.514Z,27.83
2018-07-20T09:25:46.498Z,28.18
2018-07-20T09:28:15.478Z,28.03
2018-07-20T09:30:44.412Z,29.76
2018-07-20T09:33:13.376Z,28.56
2018-07-20T09:35:42.348Z,27.42
2018-07-20T09:38:11.349Z,29.83
2018-07-20T09:40:40.293Z,28.45
2018-07-20T09:43:09.227Z,27.70
2018-07-20T09:45:38.185Z,27.55
2018-07-20T09:48:07.120Z,27.14
2018-07-20T09:50:36.049Z,31.30
2018-07-20T09:53:05.010Z,28.34
2018-07-20T09:55:33.936Z,29.68
2018-07-20T09:58:03.307Z,28.07
2018-07-20T10:00:42.320Z,29.12
2018-07-20T10:03:11.276Z,29.91
2018-07-20T10:05:40.220Z,29.13
2018-07-20T10:08:09.340Z,28.76
2018-07-20T10:10:38.286Z,26.34
2018-07-20T10:13:07.252Z,27.76
2018-07-20T10:15:36.427Z,27.88
2018-07-20T10:18:05.339Z,28.39
2018-07-20T10:20:34.259Z,25.21
2018-07-20T10:23:03.279Z,28.38
2018-07-20T10:25:32.722Z,26.27
2018-07-20T10:28:01.659Z,26.24
2018-07-20T10:30:30.864Z,28.42
2018-07-20T10:32:59.906Z,29.34
2018-07-20T10:35:28.838Z,25.92
2018-07-20T10:37:57.852Z,25.77
2018-07-20T10:40:27.772Z,29.34
2018-07-20T10:42:58.813Z,28.10
2018-07-20T10:45:27.908Z,26.06
2018-07-20T10:47:56.888Z,27.20
2018-07-20T10:50:25.879Z,24.50
2018-07-20T10:52:54.852Z,24.60
2018-07-20T10:55:23.775Z,25.71
2018-07-20T10:57:52.817Z,27.17
2018-07-20T11:00:21.715Z,27.95
2018-07-20T11:02:50.625Z,28.61
2018-07-20T11:05:19.589Z,28.03
2018-07-20T11:07:48.504Z,27.52
2018-07-20T11:10:17.434Z,30.30
2018-07-20T11:12:46.367Z,30.90
2018-07-20T11:15:15.266Z,29.73
2018-07-20T11:17:44.228Z,30.49
2018-07-20T11:20:13.144Z,31.30
2018-07-20T11:22:42.908Z,31.00
2018-07-20T11:25:11.905Z,28.87
2018-07-20T11:27:40.859Z,26.75
2018-07-20T11:30:09.845Z,26.75
2018-07-20T11:32:38.790Z,26.91
2018-07-20T11:35:07.725Z,29.14
2018-07-20T11:37:36.624Z,31.67
2018-07-20T11:40:05.543Z,32.63
2018-07-20T11:42:34.428Z,26.82
2018-07-20T11:45:03.347Z,27.30
2018-07-20T11:47:32.360Z,27.94
2018-07-20T11:50:01.256Z,25.42
2018-07-20T11:52:30.396Z,27.22
2018-07-20T11:54:59.357Z,26.49
2018-07-20T11:57:28.281Z,24.56
2018-07-20T11:59:57.239Z,25.91
2018-07-20T12:02:26.168Z,23.99
2018-07-20T12:04:55.106Z,24.27
2018-07-20T12:07:24.049Z,24.14
2018-07-20T12:09:53.015Z,25.63
2018-07-20T12:12:22.005Z,24.85
2018-07-20T12:14:51.083Z,25.32
2018-07-20T12:17:20.029Z,27.45
2018-07-20T12:19:48.967Z,21.94
2018-07-20T12:22:17.882Z,23.65
2018-07-20T12:24:46.831Z,25.60
2018-07-20T12:27:15.747Z,24.00
2018-07-20T12:29:45.260Z,23.10
2018-07-20T12:32:14.157Z,23.09
2018-07-20T12:34:43.120Z,24.21
2018-07-20T12:37:12.044Z,22.07
2018-07-20T12:39:41.010Z,25.72
2018-07-20T12:42:10.001Z,25.58
2018-07-20T12:46:39.850Z,27.65
2018-07-20T12:49:08.960Z,24.24
2018-07-20T12:51:37.891Z,23.79
2018-07-20T12:54:06.849Z,22.00
2018-07-20T12:56:35.823Z,22.20
2018-07-20T12:59:05.024Z,23.19
2018-07-20T13:01:33.933Z,22.68
2018-07-20T13:04:03.370Z,21.86
2018-07-20T13:06:32.395Z,23.06
2018-07-20T13:09:02.256Z,24.79
2018-07-20T13:11:31.324Z,26.12
2018-07-20T13:14:00.274Z,23.21
2018-07-20T13:16:29.174Z,23.49
2018-07-20T13:18:58.109Z,24.07
2018-07-20T13:21:27.032Z,24.82
2018-07-20T13:23:55.985Z,27.89
2018-07-20T13:26:24.969Z,24.03
2018-07-20T13:28:53.932Z,24.86
2018-07-20T13:31:22.938Z,22.44
2018-07-20T13:33:51.826Z,23.33
2018-07-20T13:36:20.784Z,24.10
2018-07-20T13:38:49.964Z,22.81
2018-07-20T13:41:18.884Z,24.21
2018-07-20T13:43:47.793Z,24.98
2018-07-20T13:46:16.704Z,25.35
2018-07-20T13:48:45.812Z,24.71
2018-07-20T13:51:14.718Z,23.28
2018-07-20T13:53:43.672Z,24.23
2018-07-20T13:56:12.582Z,23.86
2018-07-20T13:58:41.499Z,24.53
2018-07-20T14:01:10.514Z,25.88
2018-07-20T14:03:39.680Z,26.24
2018-07-20T14:06:08.634Z,25.33
2018-07-20T14:08:37.598Z,26.37
2018-07-20T14:11:06.691Z,24.05
2018-07-20T14:13:35.868Z,22.51
2018-07-20T14:16:04.973Z,24.03
2018-07-20T14:18:33.932Z,26.58
2018-07-20T14:21:02.860Z,25.01
2018-07-20T14:23:31.767Z,24.32
2018-07-20T14:26:00.681Z,26.42
2018-07-20T14:28:29.663Z,24.38
2018-07-20T14:30:58.670Z,24.54
2018-07-20T14:33:27.783Z,23.47
2018-07-20T14:35:56.693Z,25.63
2018-07-20T14:38:25.639Z,25.21
2018-07-20T14:40:54.613Z,26.40
2018-07-20T14:43:23.664Z,25.46
2018-07-20T14:45:52.681Z,26.73
2018-07-20T14:48:21.596Z,28.04
2018-07-20T14:50:50.527Z,26.64
2018-07-20T14:53:19.673Z,25.33
2018-07-20T14:55:48.652Z,24.36
2018-07-20T14:58:17.560Z,25.29
2018-07-20T15:00:46.489Z,25.02
2018-07-20T15:03:15.420Z,26.74
2018-07-20T15:05:44.338Z,26.00
2018-07-20T15:08:13.333Z,25.60
2018-07-20T15:10:42.371Z,25.22
2018-07-20T15:13:11.272Z,26.22
2018-07-20T15:15:40.241Z,25.60
2018-07-20T15:18:09.197Z,24.34
2018-07-20T15:20:38.117Z,26.23
2018-07-20T15:23:07.184Z,26.11
2018-07-20T15:25:36.310Z,26.32
2018-07-20T15:28:05.383Z,24.41
2018-07-20T15:30:34.279Z,27.07
2018-07-20T15:33:03.257Z,26.45
2018-07-20T15:35:32.157Z,26.84
2018-07-20T15:38:01.113Z,27.05
2018-07-20T15:40:30.037Z,27.02
2018-07-20T15:42:58.945Z,28.10
2018-07-20T15:45:27.892Z,28.11
2018-07-20T15:47:56.844Z,27.00
2018-07-20T15:50:25.784Z,27.79
2018-07-20T15:53:36.268Z,26.76
2018-07-20T15:55:23.795Z,27.15
2018-07-20T15:57:52.779Z,28.87
2018-07-20T16:00:21.705Z,26.21
2018-07-20T16:02:50.628Z,27.88
2018-07-20T16:05:19.568Z,26.35
2018-07-20T16:07:48.492Z,26.42
2018-07-20T16:10:17.407Z,26.31
2018-07-20T16:12:46.326Z,25.95
2018-07-20T16:15:15.266Z,25.16
2018-07-20T16:17:44.194Z,26.81
2018-07-20T16:20:13.117Z,28.22
2018-07-20T16:22:42.275Z,28.30
2018-07-20T16:25:11.187Z,28.41
2018-07-20T16:27:40.115Z,29.25
2018-07-20T16:30:09.147Z,27.79
2018-07-20T16:32:38.072Z,29.38
2018-07-20T16:35:07.295Z,29.58
2018-07-20T16:37:36.238Z,29.41
2018-07-20T16:40:05.128Z,28.09
2018-07-20T16:42:34.077Z,28.47
2018-07-20T16:45:03.024Z,29.83
2018-07-20T16:47:31.932Z,29.68
2018-07-20T16:50:01.959Z,28.63
2018-07-20T16:52:30.881Z,29.78
2018-07-20T16:54:59.812Z,29.44
2018-07-20T16:57:28.744Z,29.00
2018-07-20T16:59:57.651Z,30.13
2018-07-20T17:02:26.595Z,30.20
2018-07-20T17:04:55.585Z,30.33
2018-07-20T17:07:24.507Z,31.27
2018-07-20T17:09:53.467Z,31.25
2018-07-20T17:12:22.440Z,31.52
2018-07-20T17:14:51.383Z,32.16
2018-07-20T17:17:20.341Z,32.18
2018-07-20T17:19:49.579Z,31.32
2018-07-20T17:22:18.528Z,32.85
2018-07-20T17:24:47.522Z,31.08
2018-07-20T17:27:16.755Z,32.31
2018-07-20T17:29:46.018Z,31.92
2018-07-20T17:32:14.932Z,31.87
2018-07-20T17:34:43.886Z,32.54
2018-07-20T17:37:12.912Z,33.21
2018-07-20T17:39:41.845Z,31.71
2018-07-20T17:42:11.036Z,33.49
2018-07-20T17:44:40.005Z,33.14
2018-07-20T17:47:09.302Z,33.54
2018-07-20T17:49:38.236Z,32.92
2018-07-20T17:52:07.157Z,32.87
2018-07-20T17:54:36.090Z,33.02
2018-07-20T17:57:05.078Z,33.99
2018-07-20T17:59:34.051Z,33.89
2018-07-20T18:02:03.004Z,33.96
2018-07-20T18:04:31.916Z,34.48
2018-07-20T18:07:00.908Z,34.65
2018-07-20T18:09:29.822Z,34.63
2018-07-20T18:11:58.798Z,34.72
2018-07-20T18:14:27.719Z,34.82
2018-07-20T18:16:56.648Z,34.78
2018-07-20T18:19:25.556Z,35.18
2018-07-20T18:21:54.499Z,35.34
2018-07-20T18:24:23.657Z,35.55
2018-07-20T18:26:53.602Z,35.63
2018-07-20T18:29:22.488Z,37.43
2018-07-20T18:31:51.443Z,37.53
2018-07-20T18:34:20.352Z,38.33
2018-07-20T18:36:49.255Z,40.00
2018-07-20T18:39:18.169Z,39.18
2018-07-20T18:41:47.135Z,40.39
2018-07-20T18:44:16.033Z,40.01
2018-07-20T18:46:44.959Z,41.34
2018-07-20T18:49:13.891Z,40.73
2018-07-20T18:51:43.493Z,40.95
2018-07-20T18:54:12.416Z,40.83
2018-07-20T18:56:41.403Z,42.82
2018-07-20T18:59:11.174Z,40.26
2018-07-20T19:01:40.096Z,41.10
2018-07-20T19:04:09.063Z,43.96
2018-07-20T19:06:38.017Z,43.87
2018-07-20T19:09:08.967Z,42.12
2018-07-20T19:11:38.160Z,45.43
2018-07-20T19:14:07.120Z,42.93
2018-07-20T19:16:36.129Z,45.11
2018-07-20T19:19:05.112Z,42.75
2018-07-20T19:21:34.060Z,46.55
2018-07-20T19:24:03.178Z,46.22
2018-07-20T19:26:32.111Z,46.43
2018-07-20T19:29:01.075Z,47.51
2018-07-20T19:31:30.028Z,47.14
2018-07-20T19:33:58.941Z,48.07
2018-07-20T19:36:27.825Z,48.15
2018-07-20T19:38:56.763Z,47.98
2018-07-20T19:41:25.676Z,48.00
2018-07-20T19:43:54.823Z,46.73
2018-07-20T19:46:23.746Z,45.74
2018-07-20T19:48:52.671Z,47.85
2018-07-20T19:51:21.618Z,45.81
2018-07-20T19:53:50.585Z,46.75
2018-07-20T19:56:19.555Z,46.33
2018-07-20T19:58:48.581Z,45.83
2018-07-20T20:01:17.468Z,45.40
2018-07-20T20:03:46.426Z,48.25
2018-07-20T20:06:15.425Z,46.35
2018-07-20T20:08:44.657Z,44.85
2018-07-20T20:11:13.687Z,46.90
2018-07-20T20:13:42.761Z,45.41
2018-07-20T20:16:11.724Z,45.57
2018-07-20T20:18:40.702Z,49.04
2018-07-20T20:21:09.754Z,46.63
2018-07-20T20:23:38.682Z,46.88
2018-07-20T20:26:07.743Z,45.27
2018-07-20T20:28:36.792Z,45.24
2018-07-20T20:31:05.797Z,45.46
2018-07-20T20:33:34.772Z,47.41
2018-07-20T20:36:04.654Z,45.13
2018-07-20T20:38:34.934Z,45.93
2018-07-20T20:41:03.862Z,45.34
2018-07-20T20:43:32.909Z,45.45
2018-07-20T20:46:02.004Z,46.09
2018-07-20T20:48:31.093Z,45.43
2018-07-20T20:51:00.181Z,47.83
2018-07-20T20:53:29.088Z,47.78
2018-07-20T20:55:58.105Z,48.09
2018-07-20T20:58:27.040Z,49.70
2018-07-20T21:00:55.945Z,47.93
2018-07-20T21:03:24.842Z,48.36
2018-07-20T21:05:53.743Z,49.90
2018-07-20T21:08:22.888Z,49.01
2018-07-20T21:10:51.864Z,49.98
2018-07-20T21:13:20.812Z,50.45
2018-07-20T21:15:49.743Z,52.01
2018-07-20T21:18:18.864Z,51.94
2018-07-20T21:20:47.935Z,49.73
2018-07-20T21:23:16.972Z,52.49
2018-07-20T21:25:45.902Z,51.67
2018-07-20T21:28:14.838Z,50.04
2018-07-20T21:30:43.799Z,50.76
2018-07-20T21:33:12.805Z,52.60
2018-07-20T21:35:41.739Z,53.42
2018-07-20T21:38:10.684Z,52.36
2018-07-20T21:40:39.721Z,52.77
2018-07-20T21:43:08.920Z,52.76
2018-07-20T21:45:37.864Z,52.96
2018-07-20T21:48:07.067Z,53.40
2018-07-20T21:50:36.003Z,53.02
2018-07-20T21:53:04.912Z,53.57
2018-07-20T21:55:34.125Z,53.86
2018-07-20T21:58:02.997Z,53.99
2018-07-20T22:00:31.932Z,52.66
2018-07-20T22:03:00.836Z,52.59
2018-07-20T22:05:29.836Z,52.93
2018-07-20T22:07:58.818Z,54.08
2018-07-20T22:10:27.804Z,53.59
2018-07-20T22:12:56.735Z,53.37
2018-07-20T22:15:25.661Z,54.08
2018-07-20T22:17:54.782Z,54.22
2018-07-20T22:20:23.975Z,53.72
2018-07-20T22:22:52.961Z,55.42
2018-07-20T22:25:21.892Z,55.43
2018-07-20T22:27:50.828Z,54.93
2018-07-20T22:30:19.757Z,55.27
2018-07-20T22:32:48.713Z,54.35
2018-07-20T22:35:17.660Z,55.55
2018-07-20T22:37:46.569Z,54.86
2018-07-20T22:40:15.632Z,55.67
2018-07-20T22:42:44.581Z,56.57
2018-07-20T22:45:13.505Z,55.68
2018-07-20T22:47:42.451Z,55.64
2018-07-20T22:50:11.795Z,56.97
2018-07-20T22:52:40.971Z,56.06
2018-07-20T22:55:09.900Z,56.08
2018-07-20T22:57:38.872Z,55.85
2018-07-20T23:00:07.786Z,55.14
2018-07-20T23:02:36.752Z,55.67
2018-07-20T23:05:06.019Z,55.49
2018-07-20T23:07:34.942Z,57.01
2018-07-20T23:10:03.880Z,56.69
2018-07-20T23:12:32.965Z,55.64
2018-07-20T23:15:02.111Z,54.99
2018-07-20T23:17:31.025Z,54.65
2018-07-20T23:20:00.001Z,54.96
2018-07-20T23:22:28.972Z,57.79
2018-07-20T23:24:57.868Z,56.23
2018-07-20T23:27:26.800Z,57.61
2018-07-20T23:29:55.756Z,57.04
2018-07-20T23:32:24.700Z,57.33
2018-07-20T23:34:53.617Z,58.64
2018-07-20T23:37:22.519Z,58.45
2018-07-20T23:39:51.540Z,59.35
2018-07-20T23:42:20.616Z,59.56
2018-07-20T23:44:49.596Z,58.67
2018-07-20T23:47:18.785Z,58.96
2018-07-20T23:49:47.943Z,58.61
2018-07-20T23:52:17.235Z,58.51
2018-07-20T23:54:46.170Z,59.73
2018-07-20T23:57:15.128Z,59.51
2018-07-20T23:59:44.053Z,60.59
